createdAt,value
2022-11-05T00:02:25.503Z,97882.59
2022-11-05T00:05:47.345Z,97890.91
2022-11-05T00:09:07.624Z,97884.22
2022-11-05T00:12:42.239Z,97889.59
2022-11-05T00:16:03.348Z,97891.47
2022-11-05T00:19:10.002Z,97893.34
2022-11-05T00:22:31.683Z,97903.78
2022-11-05T00:25:34.439Z,97900.03
2022-11-05T00:28:37.172Z,97906.72
2022-11-05T00:31:39.856Z,97913.94
2022-11-05T00:34:42.520Z,97906.94
2022-11-05T00:37:50.366Z,97918.72
2022-11-05T00:40:53.465Z,97917.34
2022-11-05T00:44:13.526Z,97917.09
2022-11-05T00:47:33.687Z,97917.84
2022-11-05T00:50:36.373Z,97922.94
2022-11-05T00:53:40.509Z,97925.09
2022-11-05T00:56:43.187Z,97927.47
2022-11-05T00:59:45.906Z,97931.22
2022-11-05T01:02:48.648Z,97940.88
2022-11-05T01:05:52.733Z,97942.78
2022-11-05T01:08:57.046Z,97944.09
2022-11-05T01:11:59.672Z,97944.94
2022-11-05T01:15:02.516Z,97945.69
2022-11-05T01:18:05.452Z,97954.56
2022-11-05T01:21:12.221Z,97955.59
2022-11-05T01:24:16.197Z,97962.06
2022-11-05T01:27:18.944Z,97961.78
2022-11-05T01:30:22.233Z,97967.13
2022-11-05T01:33:25.094Z,97970.63
2022-11-05T01:36:27.765Z,97973.03
2022-11-05T01:39:31.833Z,97967.66
2022-11-05T01:42:34.909Z,97965.81
2022-11-05T01:45:37.977Z,97967.16
2022-11-05T01:48:41.019Z,97965.56
2022-11-05T01:51:45.934Z,97969.31
2022-11-05T01:54:50.042Z,97971.97
2022-11-05T01:57:55.433Z,97974.91
2022-11-05T02:00:58.371Z,97974.41
2022-11-05T02:04:05.188Z,97979.19
2022-11-05T02:07:10.364Z,97982.97
2022-11-05T02:10:17.944Z,97978.66
2022-11-05T02:13:20.586Z,97982.69
2022-11-05T02:16:38.203Z,97988.03
2022-11-05T02:20:07.982Z,97985.88
2022-11-05T02:23:53.266Z,97989.09
2022-11-05T02:27:15.002Z,97982.97
2022-11-05T02:30:43.347Z,97989.66
2022-11-05T02:33:57.541Z,97996.06
2022-11-05T02:37:12.641Z,97997.69
2022-11-05T02:40:27.331Z,97987.78
2022-11-05T02:43:49.338Z,97996.91
2022-11-05T02:47:02.615Z,97991.81
2022-11-05T02:50:22.624Z,97989.41
2022-11-05T02:53:41.625Z,97991.31
2022-11-05T02:56:52.751Z,97994.75
2022-11-05T03:00:06.704Z,98000.94
2022-11-05T03:03:24.087Z,98001.47
2022-11-05T03:06:54.172Z,97997.69
2022-11-05T03:10:08.644Z,97990.75
2022-11-05T03:13:21.795Z,98002.53
2022-11-05T03:16:39.337Z,98008.69
2022-11-05T03:19:52.763Z,98009.22
2022-11-05T03:23:14.027Z,98012.69
2022-11-05T03:26:25.265Z,98015.09
2022-11-05T03:29:34.772Z,98022.09
2022-11-05T03:32:44.889Z,98024.47
2022-11-05T03:36:01.457Z,98024.22
2022-11-05T03:39:15.361Z,98031.19
2022-11-05T03:42:24.258Z,98027.69
2022-11-05T03:45:33.949Z,98036.78
2022-11-05T03:48:46.329Z,98033.81
2022-11-05T03:52:02.502Z,98035.41
2022-11-05T03:55:09.897Z,98043.75
2022-11-05T03:58:16.771Z,98045.59
2022-11-05T04:01:23.238Z,98059.81
2022-11-05T04:04:31.027Z,98060.88
2022-11-05T04:07:58.657Z,98061.69
2022-11-05T04:11:21.372Z,98063.56
2022-11-05T04:14:28.195Z,98074.28
2022-11-05T04:17:34.828Z,98069.22
2022-11-05T04:20:59.889Z,98073.22
2022-11-05T04:24:13.789Z,98076.41
2022-11-05T04:27:19.950Z,98078.84
2022-11-05T04:30:25.916Z,98078.84
2022-11-05T04:33:32.842Z,98089.31
2022-11-05T04:36:43.885Z,98098.91
2022-11-05T04:39:51.977Z,98088.47
2022-11-05T04:42:59.383Z,98087.13
2022-11-05T04:46:05.612Z,98089.31
2022-11-05T04:49:13.134Z,98096.78
2022-11-05T04:52:19.885Z,98095.75
2022-11-05T04:55:31.991Z,98095.75
2022-11-05T04:58:41.804Z,98103.22
2022-11-05T05:02:05.975Z,98102.66
2022-11-05T05:05:12.939Z,98109.63
2022-11-05T05:08:20.662Z,98109.13
2022-11-05T05:11:31.920Z,98116.34
2022-11-05T05:14:38.037Z,98117.44
2022-11-05T05:17:47.628Z,98123.63
2022-11-05T05:21:11.307Z,98115.56
2022-11-05T05:24:26.482Z,98128.41
2022-11-05T05:27:35.950Z,98127.38
2022-11-05T05:30:42.881Z,98131.09
2022-11-05T05:33:49.153Z,98130.81
2022-11-05T05:36:58.823Z,98134.03
2022-11-05T05:40:05.119Z,98148.00
2022-11-05T05:43:15.452Z,98146.66
2022-11-05T05:46:21.920Z,98146.06
2022-11-05T05:49:28.050Z,98147.72
2022-11-05T05:52:38.666Z,98156.78
2022-11-05T05:55:41.951Z,98150.91
2022-11-05T05:58:46.182Z,98150.94
2022-11-05T06:01:49.174Z,98163.81
2022-11-05T06:04:51.961Z,98165.69
2022-11-05T06:07:58.356Z,98168.34
2022-11-05T06:11:02.511Z,98177.47
2022-11-05T06:14:06.652Z,98186.56
2022-11-05T06:17:09.388Z,98183.34
2022-11-05T06:20:12.835Z,98186.28
2022-11-05T06:23:15.590Z,98190.03
2022-11-05T06:26:19.923Z,98190.56
2022-11-05T06:29:23.991Z,98196.44
2022-11-05T06:32:26.709Z,98202.09
2022-11-05T06:35:29.404Z,98211.44
2022-11-05T06:38:33.959Z,98206.91
2022-11-05T06:41:56.957Z,98223.25
2022-11-05T06:45:01.254Z,98227.28
2022-11-05T06:48:04.222Z,98230.47
2022-11-05T06:51:08.135Z,98227.28
2022-11-05T06:54:10.956Z,98230.50
2022-11-05T06:57:13.971Z,98238.78
2022-11-05T07:00:18.985Z,98250.56
2022-11-05T07:03:21.845Z,98252.19
2022-11-05T07:06:24.598Z,98255.94
2022-11-05T07:09:27.342Z,98266.66
2022-11-05T07:12:30.425Z,98273.59
2022-11-05T07:15:34.923Z,98281.13
2022-11-05T07:18:37.816Z,98279.78
2022-11-05T07:21:43.490Z,98288.63
2022-11-05T07:24:47.265Z,98287.31
2022-11-05T07:27:50.039Z,98292.41
2022-11-05T07:30:54.121Z,98296.97
2022-11-05T07:33:56.926Z,98305.53
2022-11-05T07:36:59.831Z,98312.50
2022-11-05T07:40:02.598Z,98309.00
2022-11-05T07:43:05.370Z,98318.41
2022-11-05T07:46:13.620Z,98316.25
2022-11-05T07:49:16.813Z,98322.44
2022-11-05T07:52:19.509Z,98323.50
2022-11-05T07:55:22.226Z,98333.16
2022-11-05T07:58:25.003Z,98332.59
2022-11-05T08:01:32.258Z,98349.75
2022-11-05T08:04:35.133Z,98349.22
2022-11-05T08:07:37.826Z,98355.38
2022-11-05T08:10:41.195Z,98355.34
2022-11-05T08:13:44.032Z,98363.66
2022-11-05T08:16:48.072Z,98360.13
2022-11-05T08:19:50.857Z,98361.47
2022-11-05T08:22:54.528Z,98368.41
2022-11-05T08:25:58.099Z,98371.63
2022-11-05T08:29:00.860Z,98368.38
2022-11-05T08:32:05.094Z,98383.06
2022-11-05T08:35:08.632Z,98373.97
2022-11-05T08:38:14.670Z,98387.59
2022-11-05T08:41:17.839Z,98388.38
2022-11-05T08:44:20.667Z,98389.25
2022-11-05T08:47:25.198Z,98391.91
2022-11-05T08:50:28.280Z,98392.75
2022-11-05T08:53:31.145Z,98399.69
2022-11-05T08:56:33.957Z,98405.31
2022-11-05T08:59:36.659Z,98408.00
2022-11-05T09:02:40.924Z,98402.63
2022-11-05T09:05:44.538Z,98406.41
2022-11-05T09:08:47.448Z,98405.63
2022-11-05T09:12:11.252Z,98404.81
2022-11-05T09:15:12.844Z,98413.91
2022-11-05T09:18:18.089Z,98417.13
2022-11-05T09:21:21.505Z,98415.25
2022-11-05T09:24:24.468Z,98417.66
2022-11-05T09:27:27.490Z,98428.66
2022-11-05T09:30:30.195Z,98432.97
2022-11-05T09:33:35.818Z,98433.50
2022-11-05T09:36:38.541Z,98427.31
2022-11-05T09:39:41.305Z,98433.50
2022-11-05T09:42:47.070Z,98429.50
2022-11-05T09:45:54.324Z,98431.63
2022-11-05T09:49:04.173Z,98432.69
2022-11-05T09:52:11.382Z,98429.25
2022-11-05T09:55:24.636Z,98437.81
2022-11-05T09:58:37.250Z,98435.41
2022-11-05T10:01:40.699Z,98437.84
2022-11-05T10:04:47.672Z,98443.50
2022-11-05T10:07:54.598Z,98457.41
2022-11-05T10:11:03.542Z,98458.22
2022-11-05T10:14:13.621Z,98468.13
2022-11-05T10:17:22.353Z,98470.81
2022-11-05T10:20:33.103Z,98481.28
2022-11-05T10:23:35.816Z,98481.53
2022-11-05T10:26:39.257Z,98479.97
2022-11-05T10:29:44.021Z,98477.06
2022-11-05T10:32:47.848Z,98483.53
2022-11-05T10:35:57.026Z,98485.66
2022-11-05T10:39:03.153Z,98485.16
2022-11-05T10:42:35.320Z,98481.97
2022-11-05T10:45:51.505Z,98479.56
2022-11-05T10:49:07.596Z,98484.13
2022-11-05T10:52:21.634Z,98486.56
2022-11-05T10:55:40.082Z,98486.56
2022-11-05T10:59:00.979Z,98483.88
2022-11-05T11:02:17.500Z,98478.22
2022-11-05T11:05:23.134Z,98486.00
2022-11-05T11:08:28.141Z,98484.41
2022-11-05T11:11:34.306Z,98494.31
2022-11-05T11:14:36.998Z,98490.84
2022-11-05T11:17:55.328Z,98498.63
2022-11-05T11:21:17.108Z,98500.78
2022-11-05T11:24:23.745Z,98496.25
2022-11-05T11:27:30.138Z,98505.91
2022-11-05T11:30:33.760Z,98490.88
2022-11-05T11:33:38.850Z,98497.56
2022-11-05T11:36:46.690Z,98495.44
2022-11-05T11:39:54.005Z,98498.41
2022-11-05T11:43:00.600Z,98499.75
2022-11-05T11:46:09.872Z,98505.09
2022-11-05T11:49:31.693Z,98501.31
2022-11-05T11:52:36.784Z,98503.22
2022-11-05T11:55:41.097Z,98507.50
2022-11-05T11:58:46.735Z,98514.47
2022-11-05T12:02:07.809Z,98507.25
2022-11-05T12:05:24.120Z,98509.13
2022-11-05T12:08:45.658Z,98500.53
2022-11-05T12:11:59.763Z,98499.19
2022-11-05T12:15:15.954Z,98501.31
2022-11-05T12:18:26.644Z,98493.25
2022-11-05T12:21:52.432Z,98489.47
2022-11-05T12:25:17.799Z,98488.63
2022-11-05T12:29:18.024Z,98478.88
2022-11-05T12:33:02.866Z,98481.25
2022-11-05T12:36:14.743Z,98483.69
2022-11-05T12:39:29.578Z,98466.69
2022-11-05T12:42:47.779Z,98468.06
2022-11-05T12:46:00.307Z,98471.28
2022-11-05T12:49:20.162Z,98479.09
2022-11-05T12:52:40.829Z,98471.66
2022-11-05T12:55:48.831Z,98477.34
2022-11-05T12:58:59.643Z,98470.00
2022-11-05T13:02:15.236Z,98486.78
2022-11-05T13:05:20.995Z,98483.81
2022-11-05T13:08:29.508Z,98488.34
2022-11-05T13:11:37.405Z,98495.53
2022-11-05T13:14:46.258Z,98491.19
2022-11-05T13:17:55.133Z,98493.53
2022-11-05T13:20:59.633Z,98493.88
2022-11-05T13:24:07.001Z,98499.66
2022-11-05T13:27:42.094Z,98497.84
2022-11-05T13:30:51.621Z,98495.81
2022-11-05T13:33:57.268Z,98498.75
2022-11-05T13:37:21.589Z,98499.38
2022-11-05T13:40:38.357Z,98497.25
2022-11-05T13:43:58.700Z,98509.88
2022-11-05T13:47:17.981Z,98510.41
2022-11-05T13:50:44.566Z,98510.13
2022-11-05T13:54:02.593Z,98514.44
2022-11-05T13:57:22.174Z,98507.75
2022-11-05T14:00:27.011Z,98517.66
2022-11-05T14:03:30.309Z,98508.59
2022-11-05T14:06:37.504Z,98512.84
2022-11-05T14:09:41.798Z,98506.16
2022-11-05T14:12:50.474Z,98514.50
2022-11-05T14:16:03.207Z,98508.31
2022-11-05T14:19:29.249Z,98509.66
2022-11-05T14:22:41.357Z,98510.47
2022-11-05T14:26:14.069Z,98505.34
2022-11-05T14:29:25.165Z,98512.34
2022-11-05T14:32:44.017Z,98514.47
2022-11-05T14:35:46.793Z,98517.41
2022-11-05T14:38:52.982Z,98521.72
2022-11-05T14:41:59.022Z,98519.84
2022-11-05T14:45:22.416Z,98527.09
2022-11-05T14:48:37.779Z,98528.69
2022-11-05T14:51:45.789Z,98528.13
2022-11-05T14:54:53.291Z,98538.88
2022-11-05T14:58:06.545Z,98537.25
2022-11-05T15:01:10.815Z,98539.66
2022-11-05T15:04:19.181Z,98542.88
2022-11-05T15:07:36.640Z,98529.97
2022-11-05T15:10:41.714Z,98540.97
2022-11-05T15:13:52.574Z,98550.38
2022-11-05T15:16:58.314Z,98551.44
2022-11-05T15:20:09.361Z,98540.19
2022-11-05T15:23:15.677Z,98546.63
2022-11-05T15:26:28.081Z,98547.94
2022-11-05T15:29:33.015Z,98544.22
2022-11-05T15:32:38.436Z,98549.03
2022-11-05T15:35:42.621Z,98549.81
2022-11-05T15:38:56.875Z,98549.53
2022-11-05T15:42:14.975Z,98543.63
2022-11-05T15:45:21.467Z,98554.09
2022-11-05T15:48:24.225Z,98542.81
2022-11-05T15:51:28.077Z,98545.22
2022-11-05T15:54:31.539Z,98541.72
2022-11-05T15:57:40.263Z,98543.34
2022-11-05T16:00:48.666Z,98542.25
2022-11-05T16:03:53.641Z,98542.25
2022-11-05T16:06:59.809Z,98550.53
2022-11-05T16:10:06.072Z,98561.25
2022-11-05T16:13:33.033Z,98557.25
2022-11-05T16:16:35.771Z,98565.53
2022-11-05T16:19:42.465Z,98558.03
2022-11-05T16:22:46.353Z,98559.56
2022-11-05T16:25:49.290Z,98573.25
2022-11-05T16:28:54.098Z,98571.50
2022-11-05T16:31:58.653Z,98579.25
2022-11-05T16:35:04.350Z,98593.31
2022-11-05T16:38:07.096Z,98593.81
2022-11-05T16:41:14.993Z,98593.13
2022-11-05T16:44:19.130Z,98590.63
2022-11-05T16:47:23.007Z,98597.28
2022-11-05T16:50:27.891Z,98598.25
2022-11-05T16:53:30.717Z,98596.78
2022-11-05T16:56:34.325Z,98599.63
2022-11-05T16:59:38.429Z,98596.03
2022-11-05T17:02:41.388Z,98606.25
2022-11-05T17:05:44.436Z,98601.41
2022-11-05T17:08:48.213Z,98608.84
2022-11-05T17:11:50.925Z,98606.59
2022-11-05T17:14:55.065Z,98609.09
2022-11-05T17:17:58.859Z,98611.50
2022-11-05T17:21:01.545Z,98616.97
2022-11-05T17:24:04.479Z,98614.47
2022-11-05T17:27:07.185Z,98616.50
2022-11-05T17:30:13.505Z,98631.38
2022-11-05T17:33:17.202Z,98623.31
2022-11-05T17:36:20.225Z,98630.03
2022-11-05T17:39:28.735Z,98632.38
2022-11-05T17:42:34.522Z,98633.69
2022-11-05T17:45:47.811Z,98637.91
2022-11-05T17:48:50.650Z,98639.66
2022-11-05T17:51:53.336Z,98633.44
2022-11-05T17:54:56.621Z,98635.22
2022-11-05T17:57:59.327Z,98637.31
2022-11-05T18:01:03.735Z,98644.50
2022-11-05T18:04:09.067Z,98657.19
2022-11-05T18:07:12.268Z,98658.41
2022-11-05T18:10:15.875Z,98665.34
2022-11-05T18:13:18.738Z,98654.97
2022-11-05T18:16:22.783Z,98662.16
2022-11-05T18:19:25.473Z,98680.19
2022-11-05T18:22:28.223Z,98669.66
2022-11-05T18:25:30.945Z,98670.63
2022-11-05T18:28:33.944Z,98678.25
2022-11-05T18:31:38.582Z,98674.81
2022-11-05T18:34:41.503Z,98681.22
2022-11-05T18:37:44.194Z,98677.06
2022-11-05T18:40:46.920Z,98682.63
2022-11-05T18:43:49.774Z,98680.22
2022-11-05T18:46:58.514Z,98684.38
2022-11-05T18:50:01.821Z,98675.25
2022-11-05T18:53:04.550Z,98679.50
2022-11-05T18:56:11.121Z,98667.94
2022-11-05T18:59:36.033Z,98670.53
2022-11-05T19:02:38.977Z,98665.19
2022-11-05T19:05:41.763Z,98668.19
2022-11-05T19:08:44.988Z,98660.06
2022-11-05T19:11:47.685Z,98659.88
2022-11-05T19:14:50.387Z,98662.06
2022-11-05T19:17:54.442Z,98659.53
2022-11-05T19:20:57.169Z,98665.66
2022-11-05T19:24:02.458Z,98653.63
2022-11-05T19:27:05.389Z,98655.00
2022-11-05T19:30:08.950Z,98654.09
2022-11-05T19:33:13.041Z,98660.59
2022-11-05T19:36:17.733Z,98661.28
2022-11-05T19:39:20.495Z,98666.50
2022-11-05T19:42:23.324Z,98662.44
2022-11-05T19:48:51.091Z,98657.25
2022-11-05T19:51:53.884Z,98661.78
2022-11-05T19:54:56.678Z,98669.88
2022-11-05T19:57:59.423Z,98665.13
2022-11-05T20:01:02.256Z,98671.50
2022-11-05T20:04:06.956Z,98666.53
2022-11-05T20:07:09.730Z,98674.38
2022-11-05T20:10:12.768Z,98667.09
2022-11-05T20:13:19.840Z,98666.88
2022-11-05T20:16:25.345Z,98672.53
2022-11-05T20:19:29.466Z,98689.41
2022-11-05T20:22:32.355Z,98686.19
2022-11-05T20:25:35.337Z,98691.88
2022-11-05T20:28:39.049Z,98696.16
2022-11-05T20:31:41.832Z,98697.41
2022-11-05T20:34:45.823Z,98695.22
2022-11-05T20:37:53.711Z,98689.41
2022-11-05T20:40:56.924Z,98687.00
2022-11-05T20:44:00.008Z,98685.38
2022-11-05T20:47:02.667Z,98683.31
2022-11-05T20:50:08.659Z,98679.69
2022-11-05T20:53:13.012Z,98687.91
2022-11-05T20:56:20.051Z,98683.50
2022-11-05T20:59:23.925Z,98687.34
2022-11-05T21:02:26.739Z,98685.84
2022-11-05T21:05:35.377Z,98690.81
2022-11-05T21:08:38.752Z,98683.50
2022-11-05T21:11:58.854Z,98696.34
2022-11-05T21:15:01.480Z,98692.84
2022-11-05T21:18:04.955Z,98690.19
2022-11-05T21:21:12.246Z,98690.53
2022-11-05T21:24:14.966Z,98688.34
2022-11-05T21:27:17.601Z,98691.00
2022-11-05T21:30:20.388Z,98686.25
2022-11-05T21:33:23.052Z,98692.84
2022-11-05T21:36:27.326Z,98680.44
2022-11-05T21:39:29.956Z,98688.66
2022-11-05T21:42:32.622Z,98686.00
2022-11-05T21:45:35.351Z,98681.03
2022-11-05T21:48:37.967Z,98684.72
2022-11-05T21:51:59.449Z,98691.31
2022-11-05T21:55:19.959Z,98682.28
2022-11-05T21:58:39.971Z,98683.75
2022-11-05T22:01:42.741Z,98681.81
2022-11-05T22:04:47.462Z,98685.81
2022-11-05T22:07:51.556Z,98678.88
2022-11-05T22:10:54.261Z,98683.13
2022-11-05T22:13:56.907Z,98685.56
2022-11-05T22:16:59.592Z,98683.94
2022-11-05T22:20:02.291Z,98678.50
2022-11-05T22:23:10.865Z,98680.09
2022-11-05T22:26:13.915Z,98675.84
2022-11-05T22:29:16.680Z,98679.06
2022-11-05T22:32:19.856Z,98673.50
2022-11-05T22:35:22.503Z,98680.88
2022-11-05T22:38:26.576Z,98677.06
2022-11-05T22:41:29.470Z,98675.94
2022-11-05T22:44:32.140Z,98680.31
2022-11-05T22:47:34.794Z,98664.72
2022-11-05T22:50:37.415Z,98667.59
2022-11-05T22:53:42.244Z,98667.69
2022-11-05T22:56:45.064Z,98659.72
2022-11-05T22:59:48.342Z,98656.25
2022-11-05T23:02:52.405Z,98659.03
2022-11-05T23:05:58.555Z,98661.13
2022-11-05T23:09:22.685Z,98654.97
2022-11-05T23:12:27.999Z,98654.97
2022-11-05T23:15:48.405Z,98653.13
2022-11-05T23:19:08.487Z,98644.94
2022-11-05T23:22:31.030Z,98651.53
2022-11-05T23:25:35.343Z,98646.25
2022-11-05T23:28:37.973Z,98651.66
2022-11-05T23:31:58.261Z,98651.66
2022-11-05T23:35:01.233Z,98646.34
2022-11-05T23:38:21.250Z,98641.03
2022-11-05T23:41:42.439Z,98636.38
2022-11-05T23:45:02.443Z,98628.41
2022-11-05T23:48:18.139Z,98631.06
2022-11-05T23:51:21.031Z,98635.09
2022-11-05T23:54:23.691Z,98633.09
2022-11-05T23:57:27.796Z,98628.72
